메인 페이지
METAR-TAF:

METAR-TAF

공항 :

Sarasota-Bradenton International Airport

새러소타 / Bradenton, 플로리다, 미국

위도: 27-24-05N, 경도: 082-33-31W, 고도: 9m

현재 날씨관측

예보는 1 시간 3분 전, 12:53시(UTC)에 발표되었습니다.
남남동3kt
온도 27°C
습도 74%
기압 1017 hPa
시정: 16.1km
맑음

METAR: KSRQ 301253Z 16003KT 10SM CLR 27/22 A3002 RMK AO2 SLP166 T02720222

시각: 09:56 (13:56 UTC)

예보

예보는 2 시간 27분 전, 11:29시(UTC)에 발표되었습니다.
예보 대상 시간: 30일 12시부터 31일 12시까지 (UTC)
여러 방향의 바람 4kt
시정: 10km
고도 2500ft 상공 구름 조금
고도 25000ft 상공 구름 보통
30일 1700시부터 (UTC)
서남서7kt
시정: 10km
고도 4000ft 상공 구름 보통, 적란운.
고도 20000ft 상공 구름 보통
시계 내 뇌우
30일 2100시부터 (UTC)
서북서9kt
시정: 10km
고도 25000ft 상공 구름 보통
31일 0300시부터 (UTC)
여러 방향의 바람 3kt
시정: 10km
고도 20000ft 상공 구름 조금

TAF: KSRQ 301129Z 3012/3112 VRB04KT P6SM FEW025 SCT250 FM301700 25007KT P6SM VCTS SCT040CB SCT200 FM302100 30009KT P6SM SCT250 FM310300 VRB03KT P6SM FEW200

4,000개 이상의 공항 관측 자료 및 예보 (METAR 및 TAF 보고).

지도상에서 검색 가능한 기상관측소가 노란 점과 빨간 점으로 표시되어 있습니다.

기상관측소 명을 보려면 표시 위로 마우스를 이동하세요.

날씨 관측과 예보를 보려면 클릭하세요.

지도 변경 : 확대하려면 엑스 표시가 있는 녹색 버튼, 축소하려면 빼기 표시가 있는 녹색 버튼, 다음 페이지의 지도를 보려면 녹색 화살표를 클릭하세요.


METAR-TAF: